Banning, CA

5:00 AM PST on January 30, 2015 (GMT -0800)
Banning, CA: I-10 1mile N of Sun Lakes | Change Station
CLOSE
Current Station
Personal Weather Station
Location: Banning, CA
Elevation: 2543 ft
Nearby Weather Stations

Elev 2543 ft 33.93 °N, 116.93 °W | Updated 1 second ago

Overcast
Overcast
49.5 °F
Feels Like 50 °F
N
0.0
Wind Variable Wind from WNW
Gusts 0.0 mph

Today
High -- | Low -- °F
--% Chance of Precip.
Yesterday
High -- | Low -- °F
Precip. -- in
6:45 AM 5:16 PM
Waxing Gibbous, 82% visible
Pressure 29.94 in
Visibility 10.0 miles
Clouds Mostly Cloudy 7000 ft
Mostly Cloudy 8500 ft
Windchill 50 °F
Dew Point 46 °F
Humidity 86%
Rainfall 0.00 in
Snow Depth Not available.
UV 0 out of 12
Pollen 1.60 out of 12
Air Quality Not available.
Flu Activity Not available.
METAR KRIV 301158Z AUTO 03003KT 10SM BKN070 BKN085 13/08 A2995 RMK AO2 SLP137 60000 T01250084 10139 20121 57012

More Conditions Fewer Conditions

Pressure 29.94 in
Visibility 10.0 miles
Clouds Mostly Cloudy 7000 ft
Mostly Cloudy 8500 ft
Windchill 50 °F
Dew Point 46 °F
Humidity 86%
Rainfall 0.00 in
Snow Depth Not available.
UV 0 out of 12
Pollen 1.60 out of 12
Air Quality Not available.
Flu Activity Not available.
METAR KRIV 301158Z AUTO 03003KT 10SM BKN070 BKN085 13/08 A2995 RMK AO2 SLP137 60000 T01250084 10139 20121 57012

More Conditions Fewer Conditions

10-Day Weather Forecast

Almanac

Astronomy

Jan. 30, 2015 Rise Set
Actual Time
Civil Twilight
Nautical Twilight
Astronomical Twilight
Moon
Length of Visible Light
Length of Day
Tomorrow will be .
, % of the Moon is Illuminated

Today's Extremes

State Highs State Lows

Community

WunderPhotos

Upload Photos

1,791,747 photos uploaded!

WunderBlogs® & News

Nearby

Air Quality

  Air Quality AQ Index Pollutant
Not available.

Snow Depth

Station Depth Elevation

Earthquake Activity

City Distance Mag. Time & Date
Minimum magnitude displayed is 2.5.

Coastal Water Temperatures

Place Temperature

Nearby Weather Stations